createdAt,value
2023-02-15T00:00:19.313Z,79.51
2023-02-15T00:02:49.641Z,79.99
2023-02-15T00:05:18.441Z,80.65
2023-02-15T00:07:46.422Z,81.79
2023-02-15T00:10:15.125Z,82.94
2023-02-15T00:12:43.433Z,86.46
2023-02-15T00:15:13.700Z,88.02
2023-02-15T00:17:41.632Z,89.15
2023-02-15T00:20:11.410Z,91.50
2023-02-15T00:22:39.651Z,93.01
2023-02-15T00:25:08.391Z,94.57
2023-02-15T00:27:36.692Z,96.33
2023-02-15T00:30:06.763Z,96.24
2023-02-15T00:32:34.488Z,97.82
2023-02-15T00:35:02.542Z,99.94
2023-02-15T00:37:30.566Z,100.00
2023-02-15T00:39:58.762Z,99.09
2023-02-15T00:42:27.084Z,97.96
2023-02-15T00:44:55.698Z,98.00
2023-02-15T00:47:25.849Z,96.39
2023-02-15T00:49:54.061Z,94.85
2023-02-15T00:52:22.539Z,90.75
2023-02-15T00:54:51.020Z,90.92
2023-02-15T00:57:19.768Z,91.69
2023-02-15T00:59:47.684Z,90.94
2023-02-15T01:02:16.764Z,89.68
2023-02-15T01:04:45.227Z,85.17
2023-02-15T01:07:13.464Z,83.47
2023-02-15T01:09:41.485Z,84.21
2023-02-15T01:12:09.906Z,85.40
2023-02-15T01:14:41.806Z,83.88
2023-02-15T01:17:09.893Z,84.73
2023-02-15T01:19:38.637Z,87.54
2023-02-15T01:22:06.698Z,89.57
2023-02-15T01:24:35.645Z,86.75
2023-02-15T01:27:03.482Z,88.68
2023-02-15T01:29:31.558Z,89.15
2023-02-15T01:31:59.846Z,87.08
2023-02-15T01:34:28.526Z,87.18
2023-02-15T01:36:56.756Z,87.28
2023-02-15T01:39:24.977Z,86.76
2023-02-15T01:41:52.834Z,86.09
2023-02-15T01:44:47.978Z,88.83
2023-02-15T01:47:43.829Z,92.16
2023-02-15T01:50:18.867Z,94.02
2023-02-15T01:53:19.327Z,94.77
2023-02-15T01:56:15.187Z,92.30
2023-02-15T01:58:43.503Z,91.07
2023-02-15T02:01:11.078Z,89.53
2023-02-15T02:03:47.739Z,92.23
2023-02-15T02:06:15.831Z,92.88
2023-02-15T02:08:43.830Z,90.86
2023-02-15T02:11:13.740Z,90.31
2023-02-15T02:13:44.792Z,93.23
2023-02-15T02:16:21.614Z,94.69
2023-02-15T02:19:19.823Z,100.00
2023-02-15T02:22:24.066Z,100.00
2023-02-15T02:25:29.980Z,100.00
2023-02-15T02:28:43.043Z,100.00
2023-02-15T02:31:33.499Z,100.00
2023-02-15T02:34:09.448Z,100.00
2023-02-15T02:36:56.780Z,100.00
2023-02-15T02:39:51.818Z,100.00
2023-02-15T02:42:30.958Z,100.00
2023-02-15T02:45:11.532Z,100.00
2023-02-15T02:47:52.116Z,100.00
2023-02-15T02:50:23.894Z,100.00
2023-02-15T02:52:53.031Z,100.00
2023-02-15T02:55:27.873Z,100.00
2023-02-15T02:57:58.092Z,99.99
2023-02-15T03:00:26.803Z,99.98
2023-02-15T03:02:59.513Z,99.29
2023-02-15T03:05:27.379Z,96.66
2023-02-15T03:07:54.957Z,95.87
2023-02-15T03:10:24.167Z,94.80
2023-02-15T03:12:51.725Z,93.30
2023-02-15T03:15:27.395Z,92.99
2023-02-15T03:17:59.631Z,91.67
2023-02-15T03:20:34.799Z,91.38
2023-02-15T03:23:08.011Z,91.61
2023-02-15T03:25:37.129Z,92.06
2023-02-15T03:28:10.032Z,92.65
2023-02-15T03:30:37.909Z,94.74
2023-02-15T03:33:05.646Z,94.92
2023-02-15T03:35:50.829Z,94.83
2023-02-15T03:38:22.802Z,94.87
2023-02-15T03:41:16.997Z,95.39
2023-02-15T03:44:01.651Z,94.87
2023-02-15T03:46:36.909Z,93.66
2023-02-15T03:49:07.708Z,92.46
2023-02-15T03:51:37.237Z,91.10
2023-02-15T03:54:05.071Z,90.05
2023-02-15T03:56:35.110Z,88.54
2023-02-15T03:59:21.960Z,87.47
2023-02-15T04:02:01.606Z,86.39
2023-02-15T04:04:39.561Z,88.34
2023-02-15T04:07:08.610Z,90.75
2023-02-15T04:09:55.049Z,92.98
2023-02-15T04:12:23.376Z,93.74
2023-02-15T04:15:09.951Z,93.25
2023-02-15T04:17:38.867Z,94.17
2023-02-15T04:20:27.569Z,95.09
2023-02-15T04:23:14.308Z,94.64
2023-02-15T04:25:42.334Z,93.25
2023-02-15T04:28:10.126Z,92.43
2023-02-15T04:30:38.050Z,92.75
2023-02-15T04:33:06.123Z,92.52
2023-02-15T04:35:37.068Z,92.44
2023-02-15T04:38:04.715Z,92.54
2023-02-15T04:40:33.120Z,92.46
2023-02-15T04:43:01.370Z,92.04
2023-02-15T04:45:29.528Z,92.92
2023-02-15T04:47:57.686Z,93.08
2023-02-15T04:50:25.843Z,94.14
2023-02-15T04:52:53.783Z,94.65
2023-02-15T04:55:21.420Z,94.71
2023-02-15T04:57:49.621Z,93.93
2023-02-15T05:00:17.830Z,94.04
2023-02-15T05:02:48.435Z,93.52
2023-02-15T05:05:16.462Z,93.41
2023-02-15T05:07:44.334Z,93.13
2023-02-15T05:10:12.569Z,92.08
2023-02-15T05:12:40.220Z,91.85
2023-02-15T05:15:09.468Z,91.44
2023-02-15T05:17:37.541Z,91.49
2023-02-15T05:20:11.467Z,90.35
2023-02-15T05:22:39.598Z,89.79
2023-02-15T05:25:26.648Z,88.33
2023-02-15T05:28:12.971Z,87.17
2023-02-15T05:30:40.932Z,87.74
2023-02-15T05:33:08.754Z,88.45
2023-02-15T05:35:37.139Z,88.88
2023-02-15T05:38:05.092Z,89.45
2023-02-15T05:40:33.429Z,90.63
2023-02-15T05:43:02.844Z,91.23
2023-02-15T05:45:30.457Z,91.52
2023-02-15T05:47:59.409Z,91.74
2023-02-15T05:50:27.525Z,92.01
2023-02-15T05:52:55.326Z,92.94
2023-02-15T05:55:22.930Z,93.13
2023-02-15T05:57:50.534Z,93.58
2023-02-15T06:00:19.819Z,93.42
2023-02-15T06:02:48.327Z,93.29
2023-02-15T06:05:16.513Z,93.10
2023-02-15T06:07:46.957Z,94.20
2023-02-15T06:10:14.662Z,94.84
2023-02-15T06:12:42.634Z,95.00
2023-02-15T06:15:11.953Z,96.55
2023-02-15T06:17:39.711Z,97.00
2023-02-15T06:20:09.445Z,95.74
2023-02-15T06:22:37.802Z,94.31
2023-02-15T06:25:07.272Z,94.95
2023-02-15T06:27:35.655Z,94.97
2023-02-15T06:30:04.693Z,95.05
2023-02-15T06:32:32.367Z,94.91
2023-02-15T06:35:00.259Z,94.25
2023-02-15T06:37:31.767Z,94.01
2023-02-15T06:40:01.890Z,94.42
2023-02-15T06:42:31.490Z,94.05
2023-02-15T06:45:01.474Z,93.95
2023-02-15T06:47:29.521Z,93.66
2023-02-15T06:49:58.667Z,93.77
2023-02-15T06:52:27.457Z,93.40
2023-02-15T06:54:55.675Z,93.89
2023-02-15T06:57:24.139Z,93.70
2023-02-15T06:59:51.962Z,92.91
2023-02-15T07:02:20.460Z,92.50
2023-02-15T07:04:48.864Z,91.60
2023-02-15T07:07:17.017Z,91.42
2023-02-15T07:09:45.135Z,91.18
2023-02-15T07:12:36.638Z,90.60
2023-02-15T07:15:07.781Z,90.92
2023-02-15T07:17:36.664Z,91.54
2023-02-15T07:20:42.862Z,91.62
2023-02-15T07:23:10.551Z,91.42
2023-02-15T07:25:38.177Z,91.43
2023-02-15T07:28:05.456Z,92.06
2023-02-15T07:30:33.847Z,92.28
2023-02-15T07:33:20.123Z,92.47
2023-02-15T07:36:16.901Z,91.45
2023-02-15T07:38:46.337Z,91.01
2023-02-15T07:41:15.608Z,90.67
2023-02-15T07:43:44.381Z,90.85
2023-02-15T07:46:14.224Z,90.97
2023-02-15T07:48:41.693Z,90.86
2023-02-15T07:51:09.853Z,90.79
2023-02-15T07:53:37.473Z,91.19
2023-02-15T07:56:28.397Z,92.43
2023-02-15T07:58:58.864Z,94.43
2023-02-15T08:01:34.839Z,94.70
2023-02-15T08:04:03.156Z,94.35
2023-02-15T08:06:32.919Z,94.14
2023-02-15T08:09:00.106Z,94.39
2023-02-15T08:11:34.884Z,94.20
2023-02-15T08:14:11.531Z,94.23
2023-02-15T08:16:49.226Z,93.89
2023-02-15T08:19:21.436Z,93.33
2023-02-15T08:21:50.514Z,93.38
2023-02-15T08:24:19.347Z,93.86
2023-02-15T08:26:47.874Z,93.39
2023-02-15T08:29:20.370Z,92.52
2023-02-15T08:31:47.738Z,91.97
2023-02-15T08:34:18.049Z,91.14
2023-02-15T08:36:46.320Z,91.58
2023-02-15T08:39:15.607Z,92.32
2023-02-15T08:41:47.925Z,92.03
2023-02-15T08:44:16.779Z,92.78
2023-02-15T08:46:45.598Z,93.24
2023-02-15T08:49:15.219Z,92.92
2023-02-15T08:51:44.428Z,91.54
2023-02-15T08:54:34.502Z,91.11
2023-02-15T08:57:02.587Z,88.28
2023-02-15T08:59:30.337Z,88.36
2023-02-15T09:01:58.732Z,87.86
2023-02-15T09:04:26.971Z,86.99
2023-02-15T09:06:54.664Z,87.15
2023-02-15T09:09:22.800Z,87.03
2023-02-15T09:11:55.841Z,85.68
2023-02-15T09:14:25.588Z,85.06
2023-02-15T09:16:54.762Z,84.16
2023-02-15T09:19:22.628Z,83.90
2023-02-15T09:21:50.228Z,82.15
2023-02-15T09:24:17.783Z,82.36
2023-02-15T09:26:47.253Z,81.83
2023-02-15T09:29:14.841Z,82.24
2023-02-15T09:31:46.505Z,80.25
2023-02-15T09:34:14.633Z,79.52
2023-02-15T09:36:42.603Z,77.84
2023-02-15T09:39:40.067Z,77.41
2023-02-15T09:42:28.239Z,78.40
2023-02-15T09:45:18.622Z,77.47
2023-02-15T09:48:04.382Z,75.93
2023-02-15T09:51:02.834Z,74.76
2023-02-15T09:53:40.083Z,74.14
2023-02-15T09:56:07.115Z,72.47
2023-02-15T09:58:57.155Z,71.39
2023-02-15T10:02:12.607Z,71.04
2023-02-15T10:04:56.890Z,69.70
2023-02-15T10:07:23.680Z,69.85
2023-02-15T10:10:00.159Z,68.94
2023-02-15T10:12:48.762Z,65.52
2023-02-15T10:15:25.127Z,65.24
2023-02-15T10:18:12.748Z,64.95
2023-02-15T10:21:01.413Z,63.15
2023-02-15T10:23:40.932Z,62.74
2023-02-15T10:26:26.439Z,61.00
2023-02-15T10:28:57.601Z,61.71
2023-02-15T10:31:48.063Z,62.18
2023-02-15T10:34:36.917Z,61.52
2023-02-15T10:37:06.995Z,59.99
2023-02-15T10:40:03.275Z,59.35
2023-02-15T10:43:00.790Z,57.36
2023-02-15T10:45:33.566Z,56.16
2023-02-15T10:48:00.126Z,56.49
2023-02-15T10:50:36.021Z,56.04
2023-02-15T10:53:12.394Z,55.20
2023-02-15T10:56:16.727Z,51.99
2023-02-15T10:58:46.719Z,51.21
2023-02-15T11:01:22.565Z,52.87
2023-02-15T11:04:26.558Z,54.19
2023-02-15T11:06:59.983Z,53.77
2023-02-15T11:09:30.908Z,52.92
2023-02-15T11:12:00.764Z,52.47
2023-02-15T11:14:40.429Z,52.38
2023-02-15T11:17:13.673Z,52.46
2023-02-15T11:19:48.731Z,51.22
2023-02-15T11:22:18.009Z,51.58
2023-02-15T11:24:45.961Z,52.13
2023-02-15T11:27:23.036Z,51.21
2023-02-15T11:29:52.709Z,51.33
2023-02-15T11:32:23.122Z,49.51
2023-02-15T11:35:11.854Z,49.94
2023-02-15T11:37:49.766Z,50.59
2023-02-15T11:40:31.925Z,49.49
2023-02-15T11:43:13.205Z,48.64
2023-02-15T11:45:40.893Z,48.83
2023-02-15T11:48:11.710Z,47.61
2023-02-15T11:50:39.395Z,46.38
2023-02-15T11:53:31.251Z,44.90
2023-02-15T11:55:59.321Z,44.70
2023-02-15T11:58:42.220Z,44.65
2023-02-15T12:01:39.907Z,43.35
2023-02-15T12:04:12.485Z,42.67
2023-02-15T12:06:45.448Z,40.48
2023-02-15T12:09:43.740Z,41.35
2023-02-15T12:12:29.368Z,40.48
2023-02-15T12:15:01.797Z,39.90
2023-02-15T12:17:34.561Z,39.38
2023-02-15T12:20:03.807Z,39.00
2023-02-15T12:22:34.013Z,38.15
2023-02-15T12:25:02.317Z,37.90
2023-02-15T12:27:31.504Z,37.28
2023-02-15T12:30:00.929Z,36.57
2023-02-15T12:32:29.934Z,35.39
2023-02-15T12:35:23.854Z,34.98
2023-02-15T12:37:56.004Z,35.11
2023-02-15T12:40:58.434Z,33.31
2023-02-15T12:43:36.771Z,32.88
2023-02-15T12:46:22.729Z,32.83
2023-02-15T12:49:09.076Z,33.13
2023-02-15T12:51:59.816Z,31.96
2023-02-15T12:54:41.161Z,31.33
2023-02-15T12:57:44.240Z,30.67
2023-02-15T13:00:28.662Z,31.06
2023-02-15T13:02:58.093Z,29.87
2023-02-15T13:05:37.970Z,29.08
2023-02-15T13:08:19.093Z,29.31
2023-02-15T13:10:56.448Z,28.82
2023-02-15T13:13:27.516Z,28.44
2023-02-15T13:15:57.273Z,28.43
2023-02-15T13:18:32.608Z,27.71
2023-02-15T13:21:06.045Z,27.73
2023-02-15T13:23:36.118Z,26.95
2023-02-15T13:26:05.268Z,27.39
2023-02-15T13:28:47.541Z,27.33
2023-02-15T13:31:39.946Z,27.37
2023-02-15T13:34:14.258Z,26.23
2023-02-15T13:36:56.041Z,26.40
2023-02-15T13:39:33.507Z,26.18
2023-02-15T13:42:22.632Z,25.88
2023-02-15T13:45:27.168Z,25.93
2023-02-15T13:47:56.964Z,25.23
2023-02-15T13:50:45.451Z,25.38
2023-02-15T13:53:42.702Z,25.28
2023-02-15T13:56:28.608Z,25.57
2023-02-15T13:59:34.303Z,25.00
2023-02-15T14:02:32.351Z,24.53
2023-02-15T14:05:23.556Z,24.80
2023-02-15T14:08:21.571Z,24.19
2023-02-15T14:10:53.167Z,24.94
2023-02-15T14:13:41.573Z,25.34
2023-02-15T14:16:38.979Z,25.07
2023-02-15T14:19:19.795Z,25.76
2023-02-15T14:22:27.132Z,26.14
2023-02-15T14:24:59.764Z,26.59
2023-02-15T14:27:50.635Z,26.98
2023-02-15T14:30:22.232Z,28.19
2023-02-15T14:33:15.915Z,28.16
2023-02-15T14:35:43.976Z,28.50
2023-02-15T14:38:11.017Z,28.26
2023-02-15T14:41:04.595Z,28.86
2023-02-15T14:43:50.495Z,29.04
2023-02-15T14:46:26.077Z,29.37
2023-02-15T14:49:19.195Z,29.81
2023-02-15T14:51:48.667Z,29.42
2023-02-15T14:54:18.309Z,29.81
2023-02-15T14:56:46.496Z,29.04
2023-02-15T14:59:13.539Z,29.15
2023-02-15T15:01:41.461Z,29.29
2023-02-15T15:04:28.511Z,28.09
2023-02-15T15:07:14.311Z,27.40
2023-02-15T15:09:42.816Z,26.51
2023-02-15T15:12:22.247Z,26.23
2023-02-15T15:14:50.026Z,26.14
2023-02-15T15:17:35.087Z,26.54
2023-02-15T15:20:15.352Z,26.58
2023-02-15T15:22:43.299Z,26.97
2023-02-15T15:25:12.065Z,27.36
2023-02-15T15:27:51.782Z,27.26
2023-02-15T15:30:25.675Z,28.41
2023-02-15T15:32:55.741Z,29.14
2023-02-15T15:35:39.160Z,29.76
2023-02-15T15:38:09.969Z,30.94
2023-02-15T15:40:43.757Z,32.25
2023-02-15T15:43:29.217Z,31.71
2023-02-15T15:46:08.286Z,31.89
2023-02-15T15:48:35.970Z,31.87
2023-02-15T15:51:16.081Z,32.01
2023-02-15T15:53:46.953Z,32.31
2023-02-15T15:56:16.709Z,32.08
2023-02-15T15:58:49.925Z,31.75
2023-02-15T16:01:17.750Z,31.46
2023-02-15T16:03:55.134Z,31.72
2023-02-15T16:06:39.302Z,31.29
2023-02-15T16:09:24.111Z,31.37
2023-02-15T16:12:05.921Z,30.98
2023-02-15T16:14:39.828Z,30.97
2023-02-15T16:17:09.296Z,31.37
2023-02-15T16:19:40.932Z,32.20
2023-02-15T16:22:47.958Z,33.84
2023-02-15T16:25:24.351Z,36.08
2023-02-15T16:27:52.768Z,37.14
2023-02-15T16:30:30.977Z,38.07
2023-02-15T16:33:24.603Z,39.42
2023-02-15T16:35:59.257Z,40.46
2023-02-15T16:38:45.573Z,41.14
2023-02-15T16:41:18.119Z,41.93
2023-02-15T16:43:47.483Z,42.69
2023-02-15T16:46:32.265Z,43.48
2023-02-15T16:49:01.040Z,44.01
2023-02-15T16:51:33.460Z,44.66
2023-02-15T16:54:06.806Z,44.58
2023-02-15T16:56:34.455Z,44.84
2023-02-15T16:59:03.065Z,45.14
2023-02-15T17:01:32.464Z,45.63
2023-02-15T17:04:13.485Z,45.46
2023-02-15T17:06:41.333Z,45.60
2023-02-15T17:09:15.788Z,46.39
2023-02-15T17:11:43.851Z,47.36
2023-02-15T17:14:10.964Z,47.64
2023-02-15T17:16:55.226Z,48.74
2023-02-15T17:19:30.242Z,49.90
2023-02-15T17:22:05.268Z,51.40
2023-02-15T17:24:32.813Z,52.20
2023-02-15T17:27:01.841Z,52.74
2023-02-15T17:29:37.863Z,53.03
2023-02-15T17:32:15.498Z,53.55
2023-02-15T17:34:58.052Z,53.28
2023-02-15T17:37:54.215Z,53.80
2023-02-15T17:40:31.789Z,53.94
2023-02-15T17:42:59.193Z,54.94
2023-02-15T17:45:33.156Z,55.35
2023-02-15T17:48:01.960Z,56.23
2023-02-15T17:50:30.202Z,56.60
2023-02-15T17:52:57.345Z,57.01
2023-02-15T17:55:40.709Z,57.70
2023-02-15T17:58:16.565Z,58.48
2023-02-15T18:01:14.814Z,59.08
2023-02-15T18:04:05.506Z,59.40
2023-02-15T18:06:51.677Z,59.34
2023-02-15T18:09:38.207Z,60.28
2023-02-15T18:12:25.497Z,60.66
2023-02-15T18:14:54.417Z,61.11
2023-02-15T18:17:25.375Z,61.10
2023-02-15T18:19:54.275Z,60.92
2023-02-15T18:22:22.310Z,61.28
2023-02-15T18:24:50.464Z,60.88
2023-02-15T18:27:18.464Z,60.04
2023-02-15T18:29:46.240Z,60.23
2023-02-15T18:32:18.410Z,60.08
2023-02-15T18:34:45.605Z,59.90
2023-02-15T18:37:22.034Z,60.14
2023-02-15T18:39:50.331Z,60.53
2023-02-15T18:42:27.229Z,60.97
2023-02-15T18:44:56.177Z,62.10
2023-02-15T18:47:27.242Z,62.11
2023-02-15T18:49:55.401Z,62.97
2023-02-15T18:52:23.960Z,63.11
2023-02-15T18:54:53.085Z,63.54
2023-02-15T18:57:21.250Z,63.41
2023-02-15T18:59:49.090Z,63.64
2023-02-15T19:02:18.874Z,63.00
2023-02-15T19:04:48.533Z,63.03
2023-02-15T19:07:18.017Z,62.88
2023-02-15T19:09:49.734Z,63.42
2023-02-15T19:12:19.663Z,64.88
2023-02-15T19:14:47.605Z,65.38
2023-02-15T19:17:20.370Z,65.40
2023-02-15T19:19:47.728Z,65.44
2023-02-15T19:22:15.132Z,66.36
2023-02-15T19:24:43.611Z,66.65
2023-02-15T19:27:31.952Z,66.29
2023-02-15T19:29:59.737Z,66.15
2023-02-15T19:32:27.975Z,65.74
2023-02-15T19:34:56.177Z,66.84
2023-02-15T19:37:27.149Z,66.06
2023-02-15T19:39:54.803Z,65.76
2023-02-15T19:42:23.427Z,66.20
2023-02-15T19:44:51.949Z,65.95
2023-02-15T19:47:19.686Z,65.74
2023-02-15T19:49:47.888Z,64.87
2023-02-15T19:52:17.682Z,64.71
2023-02-15T19:54:46.293Z,65.30
2023-02-15T19:57:14.828Z,64.96
2023-02-15T19:59:42.582Z,65.43
2023-02-15T20:02:15.010Z,65.36
2023-02-15T20:04:42.888Z,64.81
2023-02-15T20:07:26.361Z,64.55
2023-02-15T20:09:54.261Z,64.68
2023-02-15T20:12:26.426Z,64.55
2023-02-15T20:14:54.287Z,64.46
2023-02-15T20:17:22.374Z,66.50
2023-02-15T20:19:53.314Z,68.24
2023-02-15T20:22:25.722Z,68.13
2023-02-15T20:24:52.524Z,67.89
2023-02-15T20:27:20.276Z,67.76
2023-02-15T20:29:48.014Z,66.57
2023-02-15T20:32:16.284Z,66.42
2023-02-15T20:34:44.614Z,67.02
2023-02-15T20:37:23.633Z,67.02
2023-02-15T20:39:51.247Z,65.83
2023-02-15T20:42:18.818Z,67.25
2023-02-15T20:44:46.934Z,67.21
2023-02-15T20:47:14.691Z,66.28
2023-02-15T20:49:42.750Z,65.75
2023-02-15T20:52:19.354Z,65.57
2023-02-15T20:54:46.654Z,66.57
2023-02-15T20:57:14.898Z,67.55
2023-02-15T20:59:43.108Z,68.04
2023-02-15T21:02:21.058Z,68.31
2023-02-15T21:04:48.612Z,68.55
2023-02-15T21:07:38.431Z,68.91
2023-02-15T21:10:09.416Z,69.62
2023-02-15T21:12:37.197Z,69.30
2023-02-15T21:15:15.995Z,68.96
2023-02-15T21:17:44.318Z,69.25
2023-02-15T21:20:16.076Z,69.60
2023-02-15T21:22:44.037Z,70.35
2023-02-15T21:25:15.396Z,71.28
2023-02-15T21:27:43.291Z,71.63
2023-02-15T21:30:18.454Z,72.30
2023-02-15T21:32:49.406Z,72.23
2023-02-15T21:35:17.770Z,72.01
2023-02-15T21:37:45.330Z,72.21
2023-02-15T21:40:43.025Z,71.74
2023-02-15T21:43:55.644Z,69.75
2023-02-15T21:46:59.407Z,70.50
2023-02-15T21:49:27.699Z,70.52
2023-02-15T21:52:14.463Z,69.82
2023-02-15T21:54:42.847Z,71.25
2023-02-15T21:57:27.443Z,70.70
2023-02-15T21:59:55.995Z,70.79
2023-02-15T22:02:31.004Z,71.41
2023-02-15T22:04:59.454Z,70.72
2023-02-15T22:07:28.104Z,71.06
2023-02-15T22:09:56.681Z,70.84
2023-02-15T22:12:24.581Z,71.23
2023-02-15T22:14:53.342Z,70.74
2023-02-15T22:17:24.529Z,70.76
2023-02-15T22:19:52.531Z,70.84
2023-02-15T22:22:20.607Z,68.71
2023-02-15T22:24:48.978Z,69.00
2023-02-15T22:27:25.814Z,70.95
2023-02-15T22:29:54.461Z,72.40
2023-02-15T22:32:24.519Z,73.73
2023-02-15T22:34:52.544Z,73.58
2023-02-15T22:37:20.853Z,74.17
2023-02-15T22:39:49.033Z,74.11
2023-02-15T22:42:29.139Z,75.08
2023-02-15T22:44:57.860Z,75.77
2023-02-15T22:47:26.445Z,75.96
2023-02-15T22:49:56.934Z,76.54
2023-02-15T22:52:31.475Z,76.62
2023-02-15T22:54:59.529Z,76.63
2023-02-15T22:57:31.808Z,75.62
2023-02-15T23:00:01.222Z,75.65
2023-02-15T23:02:29.420Z,76.33
2023-02-15T23:04:57.539Z,79.77
2023-02-15T23:07:26.041Z,79.91
2023-02-15T23:09:54.078Z,80.81
2023-02-15T23:13:10.193Z,80.02
2023-02-15T23:15:37.364Z,80.39
2023-02-15T23:18:23.894Z,81.69
2023-02-15T23:20:59.292Z,78.54
2023-02-15T23:23:37.687Z,78.76
2023-02-15T23:26:06.466Z,77.17
2023-02-15T23:28:38.250Z,79.03
2023-02-15T23:31:20.484Z,78.86
2023-02-15T23:33:48.236Z,79.91
2023-02-15T23:36:36.641Z,79.71
2023-02-15T23:39:34.715Z,79.39
2023-02-15T23:42:04.791Z,80.60
2023-02-15T23:44:31.971Z,81.67
2023-02-15T23:46:59.816Z,81.12
2023-02-15T23:49:28.063Z,80.64
2023-02-15T23:51:59.890Z,79.48
2023-02-15T23:54:28.465Z,78.68
2023-02-15T23:57:00.382Z,79.50
2023-02-15T23:59:28.491Z,76.89
